createdAt,value
2019-05-11T00:00:55.280Z,10.00
2019-05-11T00:03:24.125Z,10.00
2019-05-11T00:05:53.065Z,10.00
2019-05-11T00:08:21.979Z,10.00
2019-05-11T00:10:50.825Z,10.00
2019-05-11T00:13:19.625Z,10.10
2019-05-11T00:15:48.557Z,10.10
2019-05-11T00:18:20.546Z,10.00
2019-05-11T00:20:49.376Z,10.10
2019-05-11T00:23:18.289Z,10.50
2019-05-11T00:25:47.178Z,10.30
2019-05-11T00:28:16.093Z,10.40
2019-05-11T00:30:45.062Z,10.40
2019-05-11T00:33:13.877Z,10.30
2019-05-11T00:35:42.683Z,10.00
2019-05-11T00:38:11.613Z,9.80
2019-05-11T00:40:40.501Z,9.70
2019-05-11T00:43:09.353Z,9.70
2019-05-11T00:45:38.277Z,9.70
2019-05-11T00:48:07.111Z,9.70
2019-05-11T00:50:39.509Z,9.70
2019-05-11T00:53:06.688Z,9.70
2019-05-11T00:55:35.690Z,9.70
2019-05-11T00:58:04.645Z,9.80
2019-05-11T01:00:33.536Z,9.80
2019-05-11T01:03:02.373Z,10.00
2019-05-11T01:05:31.172Z,10.10
2019-05-11T01:08:00.061Z,10.20
2019-05-11T01:10:41.576Z,10.20
2019-05-11T01:12:59.629Z,10.20
2019-05-11T01:15:28.671Z,10.10
2019-05-11T01:17:57.550Z,10.00
2019-05-11T01:20:26.464Z,9.80
2019-05-11T01:22:55.272Z,9.60
2019-05-11T01:25:24.184Z,9.60
2019-05-11T01:27:53.096Z,9.60
2019-05-11T01:30:22.128Z,9.50
2019-05-11T01:32:51.100Z,9.40
2019-05-11T01:35:19.912Z,9.40
2019-05-11T01:37:48.804Z,9.30
2019-05-11T01:40:18.561Z,9.30
2019-05-11T01:42:47.430Z,9.30
2019-05-11T01:45:16.421Z,9.30
2019-05-11T01:47:45.225Z,9.40
2019-05-11T01:50:15.710Z,9.40
2019-05-11T01:52:44.526Z,9.50
2019-05-11T01:55:13.416Z,9.50
2019-05-11T01:57:42.292Z,9.50
2019-05-11T02:00:11.565Z,9.50
2019-05-11T02:02:40.533Z,9.60
2019-05-11T02:05:27.209Z,9.60
2019-05-11T02:07:56.691Z,9.70
2019-05-11T02:10:25.702Z,9.70
2019-05-11T02:12:54.595Z,9.70
2019-05-11T02:15:23.512Z,9.70
2019-05-11T02:17:52.418Z,9.70
2019-05-11T02:20:21.462Z,9.80
2019-05-11T02:22:50.341Z,9.70
2019-05-11T02:25:19.231Z,9.80
2019-05-11T02:27:48.109Z,9.80
2019-05-11T02:30:17.157Z,9.70
2019-05-11T02:32:46.078Z,9.70
2019-05-11T02:35:15.172Z,9.80
2019-05-11T02:37:44.115Z,9.80
2019-05-11T02:40:14.106Z,9.80
2019-05-11T02:42:43.053Z,9.80
2019-05-11T02:45:12.785Z,9.80
2019-05-11T02:47:41.707Z,9.80
2019-05-11T02:50:10.851Z,9.80
2019-05-11T02:52:39.935Z,9.90
2019-05-11T02:55:08.954Z,9.90
2019-05-11T02:57:37.768Z,9.90
2019-05-11T03:00:07.973Z,9.90
2019-05-11T03:02:36.813Z,9.80
2019-05-11T03:05:07.229Z,9.90
2019-05-11T03:07:36.243Z,9.80
2019-05-11T03:10:05.749Z,9.80
2019-05-11T03:12:34.697Z,9.80
2019-05-11T03:15:03.816Z,9.80
2019-05-11T03:17:33.863Z,9.80
2019-05-11T03:20:02.900Z,9.80
2019-05-11T03:22:31.779Z,9.80
2019-05-11T03:25:00.650Z,9.80
2019-05-11T03:27:29.612Z,9.80
2019-05-11T03:30:00.964Z,9.80
2019-05-11T03:32:29.029Z,9.80
2019-05-11T03:35:01.061Z,9.80
2019-05-11T03:37:31.265Z,9.70
2019-05-11T03:40:00.154Z,9.70
2019-05-11T03:42:29.130Z,9.70
2019-05-11T03:44:58.018Z,9.80
2019-05-11T03:47:26.950Z,9.80
2019-05-11T03:49:55.869Z,9.70
2019-05-11T03:52:24.688Z,9.70
2019-05-11T03:54:53.575Z,9.70
2019-05-11T03:57:22.381Z,9.70
2019-05-11T03:59:51.205Z,9.70
2019-05-11T04:02:20.110Z,9.80
2019-05-11T04:04:48.985Z,9.70
2019-05-11T04:07:17.873Z,9.70
2019-05-11T04:09:46.762Z,9.60
2019-05-11T04:12:33.352Z,9.70
2019-05-11T04:14:46.282Z,9.70
2019-05-11T04:17:17.725Z,9.70
2019-05-11T04:19:46.610Z,9.70
2019-05-11T04:22:15.573Z,9.80
2019-05-11T04:24:44.526Z,9.70
2019-05-11T04:27:13.427Z,9.70
2019-05-11T04:29:42.228Z,9.70
2019-05-11T04:32:11.145Z,9.70
2019-05-11T04:34:40.133Z,9.70
2019-05-11T04:37:08.999Z,9.70
2019-05-11T04:39:37.890Z,9.80
2019-05-11T04:42:06.828Z,9.80
2019-05-11T04:44:35.782Z,9.80
2019-05-11T04:47:04.581Z,9.90
2019-05-11T04:49:33.554Z,10.00
2019-05-11T04:52:02.514Z,9.90
2019-05-11T04:54:31.389Z,10.00
2019-05-11T04:57:00.322Z,9.90
2019-05-11T04:59:29.127Z,9.90
2019-05-11T05:01:58.101Z,9.90
2019-05-11T05:04:26.954Z,9.80
2019-05-11T05:06:59.806Z,9.90
2019-05-11T05:09:26.483Z,9.80
2019-05-11T05:11:55.455Z,9.90
2019-05-11T05:14:24.350Z,9.90
2019-05-11T05:16:53.209Z,9.90
2019-05-11T05:19:22.054Z,9.90
2019-05-11T05:21:50.987Z,10.00
2019-05-11T05:24:19.862Z,10.00
2019-05-11T05:26:48.697Z,10.10
2019-05-11T05:29:17.492Z,10.00
2019-05-11T05:31:46.304Z,10.00
2019-05-11T05:34:15.118Z,10.10
2019-05-11T05:36:43.933Z,10.00
2019-05-11T05:39:13.017Z,10.20
2019-05-11T05:41:42.483Z,10.20
2019-05-11T05:44:11.521Z,10.20
2019-05-11T05:46:40.456Z,10.30
2019-05-11T05:49:09.296Z,10.30
2019-05-11T05:51:38.231Z,10.30
2019-05-11T05:54:07.163Z,10.40
2019-05-11T05:56:36.012Z,10.50
2019-05-11T05:59:04.972Z,10.50
2019-05-11T06:01:33.769Z,10.50
2019-05-11T06:04:02.622Z,10.60
2019-05-11T06:06:31.541Z,10.70
2019-05-11T06:09:00.429Z,10.60
2019-05-11T06:11:29.234Z,10.60
2019-05-11T06:13:58.073Z,10.70
2019-05-11T06:16:26.987Z,10.50
2019-05-11T06:18:55.810Z,10.50
2019-05-11T06:21:24.749Z,10.60
2019-05-11T06:23:53.751Z,10.60
2019-05-11T06:26:22.652Z,10.60
2019-05-11T06:28:51.491Z,10.50
2019-05-11T06:31:20.522Z,10.40
2019-05-11T06:34:00.879Z,10.50
2019-05-11T06:36:29.851Z,10.50
2019-05-11T06:38:58.730Z,10.70
2019-05-11T06:41:27.752Z,10.70
2019-05-11T06:44:01.827Z,10.50
2019-05-11T06:46:27.388Z,10.50
2019-05-11T06:48:56.393Z,10.40
2019-05-11T06:51:25.323Z,10.50
2019-05-11T06:53:54.161Z,10.40
2019-05-11T06:56:23.015Z,10.40
2019-05-11T06:58:51.996Z,10.40
2019-05-11T07:01:20.898Z,10.40
2019-05-11T07:03:51.375Z,10.50
2019-05-11T07:06:20.266Z,10.50
2019-05-11T07:08:49.110Z,10.50
2019-05-11T07:11:18.001Z,10.70
2019-05-11T07:13:46.847Z,10.80
2019-05-11T07:16:15.653Z,10.80
2019-05-11T07:18:44.573Z,11.00
2019-05-11T07:21:13.523Z,11.20
2019-05-11T07:23:42.460Z,11.40
2019-05-11T07:26:11.373Z,11.30
2019-05-11T07:28:40.211Z,11.40
2019-05-11T07:31:09.263Z,11.30
2019-05-11T07:33:38.161Z,11.20
2019-05-11T07:36:08.423Z,11.60
2019-05-11T07:38:38.201Z,11.70
2019-05-11T07:41:08.742Z,11.80
2019-05-11T07:43:38.180Z,11.70
2019-05-11T07:46:07.800Z,11.80
2019-05-11T07:48:39.261Z,11.80
2019-05-11T07:51:09.488Z,12.00
2019-05-11T07:53:38.446Z,12.30
2019-05-11T07:56:08.347Z,12.20
2019-05-11T07:58:38.771Z,12.20
2019-05-11T08:01:08.678Z,12.00
2019-05-11T08:03:40.676Z,11.90
2019-05-11T08:06:09.546Z,11.70
2019-05-11T08:08:38.652Z,12.00
2019-05-11T08:11:09.012Z,11.90
2019-05-11T08:13:38.895Z,11.70
2019-05-11T08:16:08.309Z,11.70
2019-05-11T08:18:38.695Z,11.80
2019-05-11T08:21:08.823Z,11.80
2019-05-11T08:23:37.910Z,12.00
2019-05-11T08:26:08.376Z,11.90
2019-05-11T08:28:38.117Z,12.00
2019-05-11T08:31:08.066Z,12.00
2019-05-11T08:33:39.078Z,12.00
2019-05-11T08:36:08.445Z,11.90
2019-05-11T08:38:37.969Z,11.70
2019-05-11T08:41:08.137Z,11.90
2019-05-11T08:43:38.913Z,11.60
2019-05-11T08:46:08.110Z,11.80
2019-05-11T08:48:38.822Z,11.80
2019-05-11T08:51:08.418Z,11.60
2019-05-11T08:53:38.717Z,11.70
2019-05-11T08:56:11.079Z,11.60
2019-05-11T08:58:38.398Z,11.50
2019-05-11T09:01:08.850Z,11.60
2019-05-11T09:03:38.749Z,11.70
2019-05-11T09:06:08.575Z,11.80
2019-05-11T09:08:39.998Z,11.80
2019-05-11T09:11:08.844Z,12.00
2019-05-11T09:13:39.393Z,12.10
2019-05-11T09:16:08.591Z,12.10
2019-05-11T09:18:38.537Z,12.20
2019-05-11T09:21:08.366Z,12.20
2019-05-11T09:23:40.918Z,12.20
2019-05-11T09:26:10.140Z,12.40
2019-05-11T09:28:39.479Z,12.50
2019-05-11T09:31:08.686Z,12.60
2019-05-11T09:33:38.601Z,12.80
2019-05-11T09:36:08.529Z,12.40
2019-05-11T09:38:38.379Z,12.60
2019-05-11T09:41:11.546Z,12.60
2019-05-11T09:43:38.149Z,12.50
2019-05-11T09:46:08.387Z,12.20
2019-05-11T09:48:37.993Z,12.40
2019-05-11T09:51:07.951Z,12.40
2019-05-11T09:53:38.827Z,12.20
2019-05-11T09:56:08.158Z,12.10
2019-05-11T09:58:38.706Z,11.90
2019-05-11T10:01:08.896Z,12.20
2019-05-11T10:03:38.829Z,12.20
2019-05-11T10:06:08.457Z,12.10
2019-05-11T10:08:38.130Z,12.00
2019-05-11T10:11:08.345Z,12.00
2019-05-11T10:13:38.471Z,12.10
2019-05-11T10:16:10.550Z,12.20
2019-05-11T10:18:38.767Z,12.20
2019-05-11T10:21:08.229Z,12.20
2019-05-11T10:23:42.569Z,12.20
2019-05-11T10:26:10.842Z,12.00
2019-05-11T10:28:39.761Z,11.90
2019-05-11T10:31:08.772Z,11.70
2019-05-11T10:33:38.346Z,11.80
2019-05-11T10:36:08.223Z,11.80
2019-05-11T10:38:38.035Z,11.70
2019-05-11T10:41:08.694Z,11.60
2019-05-11T10:43:38.304Z,11.70
2019-05-11T10:46:17.000Z,11.70
2019-05-11T10:48:39.092Z,11.90
2019-05-11T10:51:08.370Z,11.80
2019-05-11T10:53:38.448Z,11.90
2019-05-11T10:56:08.764Z,11.90
2019-05-11T10:58:38.055Z,11.90
2019-05-11T11:01:08.815Z,12.00
2019-05-11T11:03:37.898Z,12.30
2019-05-11T11:06:08.426Z,12.30
2019-05-11T11:08:38.293Z,12.30
2019-05-11T11:11:08.233Z,12.20
2019-05-11T11:13:38.705Z,12.30
2019-05-11T11:16:08.479Z,12.20
2019-05-11T11:18:38.264Z,12.30
2019-05-11T11:21:08.691Z,12.30
2019-05-11T11:23:38.481Z,12.60
2019-05-11T11:26:08.233Z,12.80
2019-05-11T11:28:38.397Z,12.90
2019-05-11T11:31:07.912Z,12.90
2019-05-11T11:33:38.254Z,12.90
2019-05-11T11:36:08.509Z,13.00
2019-05-11T11:38:37.766Z,12.90
2019-05-11T11:41:07.632Z,13.00
2019-05-11T11:43:37.777Z,13.10
2019-05-11T11:46:08.368Z,13.10
2019-05-11T11:48:38.535Z,13.10
2019-05-11T11:51:08.061Z,13.00
2019-05-11T11:53:38.342Z,12.90
2019-05-11T11:56:08.367Z,12.90
2019-05-11T11:58:38.170Z,12.70
2019-05-11T12:01:08.186Z,12.40
2019-05-11T12:03:37.970Z,12.30
2019-05-11T12:06:08.745Z,12.10
2019-05-11T12:08:38.946Z,12.10
2019-05-11T12:11:08.079Z,12.00
2019-05-11T12:13:38.382Z,11.90
2019-05-11T12:16:07.860Z,12.00
2019-05-11T12:18:38.069Z,12.00
2019-05-11T12:21:07.978Z,12.00
2019-05-11T12:23:38.080Z,12.10
2019-05-11T12:26:08.545Z,12.10
2019-05-11T12:28:38.202Z,12.10
2019-05-11T12:31:08.778Z,12.00
2019-05-11T12:33:38.513Z,12.10
2019-05-11T12:36:08.075Z,12.10
2019-05-11T12:38:38.194Z,12.00
2019-05-11T12:41:08.828Z,12.10
2019-05-11T12:43:38.270Z,12.20
2019-05-11T12:46:08.208Z,12.20
2019-05-11T12:48:37.952Z,12.30
2019-05-11T12:51:07.980Z,12.30
2019-05-11T12:53:38.542Z,12.20
2019-05-11T12:56:08.387Z,12.10
2019-05-11T12:58:39.444Z,12.10
2019-05-11T13:01:08.943Z,12.10
2019-05-11T13:03:38.574Z,12.20
2019-05-11T13:06:08.248Z,12.20
2019-05-11T13:08:38.905Z,12.20
2019-05-11T13:11:09.618Z,11.90
2019-05-11T13:13:39.382Z,11.80
2019-05-11T13:16:08.699Z,11.80
2019-05-11T13:18:38.420Z,11.70
2019-05-11T13:21:07.838Z,11.60
2019-05-11T13:23:38.274Z,11.60
2019-05-11T13:26:08.796Z,11.70
2019-05-11T13:28:37.968Z,11.60
2019-05-11T13:31:08.306Z,11.80
2019-05-11T13:33:38.413Z,12.00
2019-05-11T13:36:09.058Z,12.10
2019-05-11T13:38:38.828Z,12.10
2019-05-11T13:41:08.149Z,12.20
2019-05-11T13:43:38.605Z,12.20
2019-05-11T13:46:08.743Z,12.10
2019-05-11T13:48:38.656Z,12.00
2019-05-11T13:51:08.851Z,12.00
2019-05-11T13:53:37.879Z,12.10
2019-05-11T13:56:07.979Z,12.00
2019-05-11T13:58:38.183Z,12.00
2019-05-11T14:01:08.136Z,12.00
2019-05-11T14:03:37.749Z,12.10
2019-05-11T14:06:08.759Z,12.10
2019-05-11T14:08:38.427Z,12.10
2019-05-11T14:11:08.558Z,12.00
2019-05-11T14:13:38.660Z,11.90
2019-05-11T14:16:08.075Z,11.80
2019-05-11T14:18:38.668Z,11.70
2019-05-11T14:21:08.089Z,11.70
2019-05-11T14:23:38.806Z,11.70
2019-05-11T14:26:08.469Z,11.70
2019-05-11T14:28:37.815Z,11.60
2019-05-11T14:31:08.201Z,11.60
2019-05-11T14:33:38.586Z,11.50
2019-05-11T14:36:08.694Z,11.40
2019-05-11T14:38:38.127Z,11.20
2019-05-11T14:41:07.829Z,11.10
2019-05-11T14:43:38.426Z,11.00
2019-05-11T14:46:08.758Z,11.10
2019-05-11T14:48:39.156Z,11.00
2019-05-11T14:51:08.688Z,11.00
2019-05-11T14:53:37.988Z,11.00
2019-05-11T14:56:08.325Z,11.00
2019-05-11T14:58:38.568Z,11.00
2019-05-11T15:01:08.840Z,11.00
2019-05-11T15:03:38.166Z,10.90
2019-05-11T15:06:08.331Z,10.80
2019-05-11T15:08:38.733Z,10.80
2019-05-11T15:11:08.287Z,10.70
2019-05-11T15:13:38.158Z,10.60
2019-05-11T15:16:08.112Z,10.60
2019-05-11T15:18:41.731Z,10.60
2019-05-11T15:21:08.375Z,10.50
2019-05-11T15:23:37.916Z,10.60
2019-05-11T15:26:09.855Z,10.50
2019-05-11T15:28:38.083Z,10.60
2019-05-11T15:31:08.115Z,10.60
2019-05-11T15:33:38.414Z,10.50
2019-05-11T15:36:07.713Z,10.60
2019-05-11T15:38:37.870Z,10.60
2019-05-11T15:41:08.325Z,10.60
2019-05-11T15:43:38.773Z,10.60
2019-05-11T15:46:07.971Z,10.60
2019-05-11T15:48:53.405Z,10.60
2019-05-11T15:51:08.127Z,10.60
2019-05-11T15:53:37.277Z,10.60
2019-05-11T15:56:08.395Z,10.50
2019-05-11T15:58:38.233Z,10.50
2019-05-11T16:01:07.990Z,10.40
2019-05-11T16:03:36.997Z,10.30
2019-05-11T16:06:07.911Z,10.30
2019-05-11T16:08:37.642Z,10.20
2019-05-11T16:11:08.359Z,10.20
2019-05-11T16:13:37.880Z,10.10
2019-05-11T16:16:07.014Z,10.10
2019-05-11T16:18:35.865Z,10.10
2019-05-11T16:21:04.906Z,10.00
2019-05-11T16:23:33.826Z,10.00
2019-05-11T16:26:02.771Z,10.00
2019-05-11T16:28:31.604Z,9.90
2019-05-11T16:31:00.425Z,9.90
2019-05-11T16:33:29.385Z,9.90
2019-05-11T16:36:00.861Z,9.90
2019-05-11T16:38:29.090Z,9.90
2019-05-11T16:40:58.497Z,9.90
2019-05-11T16:43:28.181Z,9.90
2019-05-11T16:45:57.968Z,9.90
2019-05-11T16:48:27.730Z,9.90
2019-05-11T16:50:57.947Z,9.80
2019-05-11T16:53:28.468Z,9.80
2019-05-11T16:55:57.887Z,9.90
2019-05-11T16:58:27.811Z,9.90
2019-05-11T17:00:58.185Z,9.90
2019-05-11T17:03:27.981Z,9.90
2019-05-11T17:05:58.870Z,9.80
2019-05-11T17:08:27.863Z,9.80
2019-05-11T17:10:59.038Z,9.80
2019-05-11T17:13:28.439Z,9.80
2019-05-11T17:15:58.258Z,9.80
2019-05-11T17:18:28.304Z,9.80
2019-05-11T17:20:58.384Z,9.70
2019-05-11T17:23:30.620Z,9.60
2019-05-11T17:25:58.313Z,9.50
2019-05-11T17:28:30.300Z,9.40
2019-05-11T17:31:02.818Z,9.30
2019-05-11T17:33:29.845Z,9.20
2019-05-11T17:35:58.850Z,9.20
2019-05-11T17:38:28.159Z,9.20
2019-05-11T17:40:57.720Z,9.10
2019-05-11T17:43:28.130Z,9.10
2019-05-11T17:45:58.502Z,9.00
2019-05-11T17:48:28.259Z,8.90
2019-05-11T17:50:58.100Z,8.80
2019-05-11T17:53:28.544Z,8.80
2019-05-11T17:55:58.008Z,8.70
2019-05-11T17:58:26.929Z,8.70
2019-05-11T18:00:58.605Z,8.60
2019-05-11T18:03:27.866Z,8.60
2019-05-11T18:05:58.855Z,8.60
2019-05-11T18:08:30.271Z,8.50
2019-05-11T18:10:58.775Z,8.50
2019-05-11T18:13:28.526Z,8.50
2019-05-11T18:15:57.894Z,8.50
2019-05-11T18:18:29.114Z,8.50
2019-05-11T18:20:58.045Z,8.40
2019-05-11T18:23:28.246Z,8.40
2019-05-11T18:25:57.772Z,8.40
2019-05-11T18:28:29.024Z,8.40
2019-05-11T18:30:58.245Z,8.30
2019-05-11T18:33:27.908Z,8.40
2019-05-11T18:35:58.601Z,8.30
2019-05-11T18:38:27.786Z,8.30
2019-05-11T18:40:58.044Z,8.20
2019-05-11T18:43:28.062Z,8.30
2019-05-11T18:45:58.033Z,8.30
2019-05-11T18:48:28.970Z,8.20
2019-05-11T18:50:58.898Z,8.20
2019-05-11T18:53:28.777Z,8.20
2019-05-11T18:55:59.043Z,8.20
2019-05-11T18:58:28.416Z,8.20
2019-05-11T19:00:57.400Z,8.10
2019-05-11T19:03:28.130Z,8.10
2019-05-11T19:05:57.744Z,8.20
2019-05-11T19:08:27.967Z,8.20
2019-05-11T19:10:58.027Z,8.20
2019-05-11T19:13:28.111Z,8.10
2019-05-11T19:15:58.390Z,8.10
2019-05-11T19:18:28.125Z,8.20
2019-05-11T19:20:59.661Z,8.10
2019-05-11T19:23:28.891Z,8.20
2019-05-11T19:25:57.991Z,8.20
2019-05-11T19:28:28.074Z,8.10
2019-05-11T19:30:59.189Z,8.10
2019-05-11T19:33:27.953Z,8.10
2019-05-11T19:35:58.658Z,8.10
2019-05-11T19:38:28.125Z,8.10
2019-05-11T19:40:58.801Z,8.10
2019-05-11T19:43:27.839Z,8.20
2019-05-11T19:45:58.144Z,8.20
2019-05-11T19:48:28.046Z,8.10
2019-05-11T19:51:04.576Z,8.10
2019-05-11T19:53:28.487Z,8.10
2019-05-11T19:55:58.449Z,8.10
2019-05-11T19:58:28.871Z,8.10
2019-05-11T20:00:58.154Z,8.10
2019-05-11T20:03:28.548Z,8.00
2019-05-11T20:05:58.162Z,8.00
2019-05-11T20:08:29.083Z,8.00
2019-05-11T20:10:58.037Z,8.10
2019-05-11T20:13:28.426Z,8.00
2019-05-11T20:15:57.898Z,8.00
2019-05-11T20:18:28.899Z,8.00
2019-05-11T20:20:57.636Z,8.00
2019-05-11T20:23:26.563Z,8.00
2019-05-11T20:25:55.521Z,8.00
2019-05-11T20:28:24.384Z,7.90
2019-05-11T20:30:53.544Z,7.90
2019-05-11T20:33:22.477Z,7.90
2019-05-11T20:35:51.353Z,7.90
2019-05-11T20:38:20.182Z,7.90
2019-05-11T20:40:49.032Z,7.90
2019-05-11T20:43:18.596Z,7.90
2019-05-11T20:45:48.620Z,8.00
2019-05-11T20:48:18.518Z,8.00
2019-05-11T20:50:48.350Z,8.00
2019-05-11T20:53:18.049Z,7.90
2019-05-11T20:55:47.923Z,8.00
2019-05-11T20:58:18.793Z,8.00
2019-05-11T21:00:49.043Z,8.00
2019-05-11T21:03:18.325Z,8.00
2019-05-11T21:05:48.307Z,8.00
2019-05-11T21:08:17.861Z,8.00
2019-05-11T21:10:48.905Z,7.90
2019-05-11T21:13:17.990Z,8.00
2019-05-11T21:15:47.886Z,8.10
2019-05-11T21:18:18.475Z,8.10
2019-05-11T21:20:48.370Z,8.10
2019-05-11T21:23:18.583Z,8.10
2019-05-11T21:25:47.705Z,8.10
2019-05-11T21:28:16.615Z,8.00
2019-05-11T21:30:47.929Z,8.10
2019-05-11T21:33:17.944Z,8.10
2019-05-11T21:35:48.769Z,8.10
2019-05-11T21:38:17.701Z,8.10
2019-05-11T21:40:48.517Z,8.10
2019-05-11T21:43:17.449Z,8.00
2019-05-11T21:45:46.354Z,8.10
2019-05-11T21:48:15.317Z,8.10
2019-05-11T21:50:44.133Z,8.00
2019-05-11T21:53:13.030Z,8.10
2019-05-11T21:55:41.862Z,8.10
2019-05-11T21:58:10.725Z,8.10
2019-05-11T22:00:39.630Z,8.00
2019-05-11T22:03:10.361Z,7.90
2019-05-11T22:05:39.073Z,8.00
2019-05-11T22:08:08.605Z,8.00
2019-05-11T22:10:38.542Z,8.00
2019-05-11T22:13:07.741Z,8.00
2019-05-11T22:15:38.565Z,8.00
2019-05-11T22:18:08.116Z,8.00
2019-05-11T22:20:40.562Z,8.00
2019-05-11T22:23:08.505Z,8.00
2019-05-11T22:25:38.260Z,8.00
2019-05-11T22:28:08.471Z,7.90
2019-05-11T22:30:39.256Z,7.90
2019-05-11T22:33:08.917Z,8.00
2019-05-11T22:35:38.219Z,8.10
2019-05-11T22:38:08.414Z,8.00
2019-05-11T22:40:38.347Z,7.90
2019-05-11T22:43:09.270Z,8.00
2019-05-11T22:45:38.394Z,8.00
2019-05-11T22:48:08.056Z,8.00
2019-05-11T22:50:38.181Z,8.00
2019-05-11T22:53:08.806Z,8.00
2019-05-11T22:55:38.304Z,8.00
2019-05-11T22:58:08.499Z,7.90
2019-05-11T23:00:45.074Z,8.00
2019-05-11T23:03:14.056Z,7.90
2019-05-11T23:05:43.194Z,7.90
2019-05-11T23:08:12.249Z,7.90
2019-05-11T23:10:41.299Z,7.90
2019-05-11T23:13:11.503Z,7.90
2019-05-11T23:15:40.713Z,7.90
2019-05-11T23:18:09.558Z,8.00
2019-05-11T23:20:38.826Z,8.00
2019-05-11T23:23:08.708Z,7.90
2019-05-11T23:25:38.001Z,7.90
2019-05-11T23:28:06.993Z,7.90
2019-05-11T23:30:35.899Z,7.70
2019-05-11T23:33:04.859Z,7.80
2019-05-11T23:35:33.829Z,7.70
2019-05-11T23:38:02.749Z,7.60
2019-05-11T23:40:31.825Z,7.70
2019-05-11T23:43:00.686Z,7.70
2019-05-11T23:45:29.553Z,7.70
2019-05-11T23:47:59.004Z,7.70
2019-05-11T23:50:28.415Z,7.70
2019-05-11T23:53:06.067Z,7.70
2019-05-11T23:55:28.913Z,7.80
2019-05-11T23:57:58.197Z,7.90
